Terminal Aerodrome Forecast
Issued by NWS

Home | Current Version | Previous Version | Text Only | Print | Product List | Glossary On
Versions: 1 2 3 4 5 6 7 8 9 10 11 12 13 14 15 16 17 18 19 20 21 22 23 24 25 26 27 28
000
FTAK31 PAFA 291136
TAFAQT
TAF
PAQT 291136Z 2912/3012 05008KT 1 1/2SM -SN BR BKN015 BKN025
     FM291500 05015KT 1 1/2SM -SN BR BKN015 OVC025
     FM300300 06018KT 5SM BR SCT015 BKN025=

USA.gov is the U.S. government's official web portal to all federal, state and local government web resources and services.